createdAt,value
2018-08-24T00:00:19.024Z,100407.05
2018-08-24T00:03:23.236Z,100404.64
2018-08-24T00:06:27.452Z,100412.33
2018-08-24T00:09:31.652Z,100404.07
2018-08-24T00:12:35.876Z,100396.36
2018-08-24T00:15:40.100Z,100394.18
2018-08-24T00:18:44.321Z,100385.92
2018-08-24T00:21:49.031Z,100384.55
2018-08-24T00:24:53.260Z,100385.66
2018-08-24T00:27:57.493Z,100376.03
2018-08-24T00:31:01.684Z,100375.78
2018-08-24T00:34:05.920Z,100377.70
2018-08-24T00:37:10.132Z,100367.52
2018-08-24T00:40:14.368Z,100371.39
2018-08-24T00:43:18.604Z,100376.34
2018-08-24T00:46:23.481Z,100382.42
2018-08-24T00:49:28.024Z,100385.17
2018-08-24T00:52:32.245Z,100376.66
2018-08-24T00:55:36.428Z,100379.96
2018-08-24T00:58:40.845Z,100376.95
2018-08-24T01:01:45.063Z,100387.69
2018-08-24T01:04:49.253Z,100382.52
2018-08-24T01:07:58.625Z,100381.22
2018-08-24T01:11:02.808Z,100384.27
2018-08-24T01:14:07.048Z,100384.86
2018-08-24T01:17:16.479Z,100386.53
2018-08-24T01:20:23.504Z,100384.08
2018-08-24T01:23:29.967Z,100381.09
2018-08-24T01:26:34.187Z,100391.53
2018-08-24T01:29:39.524Z,100387.97
2018-08-24T01:32:43.752Z,100376.98
2018-08-24T01:35:48.675Z,100370.12
2018-08-24T01:38:52.945Z,100381.67
2018-08-24T01:41:57.193Z,100382.23
2018-08-24T01:45:01.406Z,100381.44
2018-08-24T01:48:05.761Z,100386.38
2018-08-24T01:51:09.980Z,100389.41
2018-08-24T01:54:14.359Z,100395.45
2018-08-24T01:57:18.576Z,100390.80
2018-08-24T02:00:22.788Z,100400.70
2018-08-24T02:03:27.019Z,100403.19
2018-08-24T02:06:31.224Z,100396.31
2018-08-24T02:09:35.447Z,100402.63
2018-08-24T02:12:45.149Z,100393.86
2018-08-24T02:15:49.357Z,100399.06
2018-08-24T02:18:58.802Z,100394.10
2018-08-24T02:22:08.303Z,100392.47
2018-08-24T02:25:12.513Z,100382.86
2018-08-24T02:28:16.769Z,100375.47
2018-08-24T02:31:21.042Z,100377.39
2018-08-24T02:34:25.231Z,100375.73
2018-08-24T02:37:30.860Z,100366.97
2018-08-24T02:40:35.070Z,100359.81
2018-08-24T02:43:39.279Z,100362.84
2018-08-24T02:46:44.427Z,100355.98
2018-08-24T02:49:48.635Z,100356.00
2018-08-24T02:52:52.849Z,100357.66
2018-08-24T02:55:57.056Z,100357.91
2018-08-24T02:59:01.335Z,100359.02
2018-08-24T03:02:05.578Z,100361.51
2018-08-24T03:05:09.936Z,100367.83
2018-08-24T03:08:14.112Z,100362.59
2018-08-24T03:11:18.332Z,100362.31
2018-08-24T03:14:22.562Z,100356.28
2018-08-24T03:17:32.125Z,100347.51
2018-08-24T03:20:36.351Z,100350.81
2018-08-24T03:23:40.557Z,100342.04
2018-08-24T03:26:44.799Z,100349.98
2018-08-24T03:29:49.045Z,100355.19
2018-08-24T03:32:53.295Z,100357.95
2018-08-24T03:35:57.563Z,100354.91
2018-08-24T03:39:01.879Z,100357.66
2018-08-24T03:42:06.205Z,100360.13
2018-08-24T03:45:10.457Z,100360.41
2018-08-24T03:48:14.660Z,100357.12
2018-08-24T03:51:18.856Z,100366.42
2018-08-24T03:54:23.673Z,100374.12
2018-08-24T03:57:27.905Z,100369.70
2018-08-24T04:00:32.121Z,100370.52
2018-08-24T04:03:36.329Z,100372.96
2018-08-24T04:06:40.554Z,100370.52
2018-08-24T04:09:44.752Z,100367.22
2018-08-24T04:12:49.094Z,100369.39
2018-08-24T04:15:53.240Z,100380.06
2018-08-24T04:18:57.448Z,100379.51
2018-08-24T04:22:01.692Z,100376.50
2018-08-24T04:25:06.823Z,100375.40
2018-08-24T04:28:11.052Z,100368.00
2018-08-24T04:31:15.277Z,100374.05
2018-08-24T04:34:19.476Z,100378.15
2018-08-24T04:37:23.712Z,100371.56
2018-08-24T04:40:28.148Z,100371.86
2018-08-24T04:43:32.205Z,100381.73
2018-08-24T04:46:36.585Z,100381.78
2018-08-24T04:49:40.831Z,100386.47
2018-08-24T04:52:45.040Z,100384.83
2018-08-24T04:55:49.234Z,100386.47
2018-08-24T04:58:53.505Z,100385.09
2018-08-24T05:01:57.712Z,100386.20
2018-08-24T05:05:01.939Z,100396.61
2018-08-24T05:08:06.149Z,100401.27
2018-08-24T05:11:10.378Z,100395.77
2018-08-24T05:14:14.588Z,100388.10
2018-08-24T05:17:20.581Z,100388.34
2018-08-24T05:20:24.812Z,100394.38
2018-08-24T05:23:29.072Z,100394.38
2018-08-24T05:26:33.280Z,100402.60
2018-08-24T05:29:37.503Z,100394.91
2018-08-24T05:32:41.716Z,100391.34
2018-08-24T05:35:46.034Z,100400.39
2018-08-24T05:38:50.204Z,100412.19
2018-08-24T05:41:54.409Z,100418.00
2018-08-24T05:44:58.645Z,100416.91
2018-08-24T05:48:02.876Z,100422.39
2018-08-24T05:51:07.165Z,100420.47
2018-08-24T05:54:11.393Z,100422.94
2018-08-24T05:57:15.675Z,100415.54
2018-08-24T06:00:23.989Z,100419.92
2018-08-24T06:03:28.235Z,100418.55
2018-08-24T06:06:32.476Z,100416.34
2018-08-24T06:09:36.748Z,100410.06
2018-08-24T06:12:40.979Z,100404.58
2018-08-24T06:15:46.559Z,100384.52
2018-08-24T06:18:50.817Z,100389.14
2018-08-24T06:21:55.062Z,100385.36
2018-08-24T06:24:59.289Z,100373.82
2018-08-24T06:28:03.517Z,100339.53
2018-08-24T06:31:07.729Z,100349.42
2018-08-24T06:34:11.977Z,100368.38
2018-08-24T06:37:16.207Z,100373.58
2018-08-24T06:40:20.477Z,100370.00
2018-08-24T06:43:24.788Z,100372.76
2018-08-24T06:46:29.086Z,100370.55
2018-08-24T06:49:33.359Z,100368.63
2018-08-24T06:52:37.589Z,100366.16
2018-08-24T06:55:41.878Z,100375.78
2018-08-24T06:58:46.120Z,100377.97
2018-08-24T07:01:50.458Z,100372.19
2018-08-24T07:04:54.729Z,100376.31
2018-08-24T07:07:59.022Z,100366.45
2018-08-24T07:11:03.286Z,100380.72
2018-08-24T07:14:07.525Z,100380.72
2018-08-24T07:17:11.805Z,100385.64
2018-08-24T07:20:16.057Z,100384.81
2018-08-24T07:23:20.304Z,100391.12
2018-08-24T07:26:24.533Z,100392.80
2018-08-24T07:29:28.781Z,100399.38
2018-08-24T07:32:33.037Z,100411.45
2018-08-24T07:35:37.328Z,100415.84
2018-08-24T07:38:41.560Z,100410.36
2018-08-24T07:41:45.779Z,100416.94
2018-08-24T07:44:53.640Z,100416.41
2018-08-24T07:47:57.861Z,100404.88
2018-08-24T07:51:02.115Z,100423.55
2018-08-24T07:54:06.379Z,100424.92
2018-08-24T07:57:10.738Z,100429.28
2018-08-24T08:00:14.945Z,100417.74
2018-08-24T08:03:19.273Z,100414.19
2018-08-24T08:06:23.641Z,100422.37
2018-08-24T08:09:27.946Z,100422.36
2018-08-24T08:12:32.283Z,100403.97
2018-08-24T08:15:36.481Z,100411.94
2018-08-24T08:18:40.767Z,100402.87
2018-08-24T08:21:44.941Z,100410.02
2018-08-24T08:24:49.362Z,100414.97
2018-08-24T08:27:53.454Z,100418.83
2018-08-24T08:30:57.674Z,100420.48
2018-08-24T08:34:01.886Z,100428.72
2018-08-24T08:37:06.112Z,100431.76
2018-08-24T08:40:10.342Z,100430.67
2018-08-24T08:43:14.562Z,100425.43
2018-08-24T08:46:18.837Z,100441.38
2018-08-24T08:49:23.049Z,100448.23
2018-08-24T08:52:27.286Z,100451.00
2018-08-24T08:55:31.505Z,100455.64
2018-08-24T08:58:35.765Z,100447.06
2018-08-24T09:01:40.016Z,100442.31
2018-08-24T09:04:44.280Z,100458.47
2018-08-24T09:07:48.580Z,100443.68
2018-08-24T09:10:52.821Z,100447.02
2018-08-24T09:13:57.101Z,100462.72
2018-08-24T09:17:05.429Z,100452.86
2018-08-24T09:20:15.016Z,100453.95
2018-08-24T09:23:24.562Z,100458.33
2018-08-24T09:26:34.154Z,100461.59
2018-08-24T09:29:38.440Z,100478.56
2018-08-24T09:32:42.809Z,100481.55
2018-08-24T09:35:47.000Z,100485.94
2018-08-24T09:38:52.424Z,100499.35
2018-08-24T09:41:58.784Z,100499.86
2018-08-24T09:45:03.167Z,100506.68
2018-08-24T09:48:12.693Z,100508.59
2018-08-24T09:51:22.233Z,100501.40
2018-08-24T09:54:26.452Z,100499.38
2018-08-24T09:57:30.705Z,100504.20
2018-08-24T10:00:40.232Z,100501.64
2018-08-24T10:03:58.552Z,100506.19
2018-08-24T10:07:07.900Z,100496.83
2018-08-24T10:10:12.129Z,100494.13
2018-08-24T10:13:16.379Z,100487.37
2018-08-24T10:16:20.593Z,100485.56
2018-08-24T10:19:24.833Z,100482.94
2018-08-24T10:22:29.234Z,100484.19
2018-08-24T10:25:33.457Z,100485.95
2018-08-24T10:28:37.688Z,100486.31
2018-08-24T10:31:41.909Z,100478.95
2018-08-24T10:34:46.218Z,100485.57
2018-08-24T10:37:50.465Z,100474.89
2018-08-24T10:40:54.840Z,100474.33
2018-08-24T10:43:58.984Z,100478.19
2018-08-24T10:47:03.729Z,100485.88
2018-08-24T10:50:07.954Z,100489.17
2018-08-24T10:53:12.209Z,100486.97
2018-08-24T10:56:16.487Z,100491.65
2018-08-24T10:59:20.679Z,100477.09
2018-08-24T11:02:24.897Z,100478.12
2018-08-24T11:05:29.102Z,100469.47
2018-08-24T11:08:33.328Z,100477.91
2018-08-24T11:11:37.565Z,100473.72
2018-08-24T11:14:41.785Z,100477.27
2018-08-24T11:17:51.316Z,100484.41
2018-08-24T11:20:55.512Z,100491.34
2018-08-24T11:23:59.746Z,100491.86
2018-08-24T11:27:03.988Z,100491.95
2018-08-24T11:30:08.270Z,100495.77
2018-08-24T11:33:12.492Z,100501.36
2018-08-24T11:36:16.765Z,100506.37
2018-08-24T11:39:20.967Z,100522.63
2018-08-24T11:42:25.234Z,100528.31
2018-08-24T11:45:29.496Z,100532.17
2018-08-24T11:48:33.763Z,100541.28
2018-08-24T11:51:37.969Z,100541.64
2018-08-24T11:54:42.253Z,100538.59
2018-08-24T11:57:46.460Z,100538.83
2018-08-24T12:00:50.656Z,100532.99
2018-08-24T12:03:54.882Z,100539.52
2018-08-24T12:06:59.141Z,100527.38
2018-08-24T12:10:03.405Z,100515.24
2018-08-24T12:13:07.669Z,100512.97
2018-08-24T12:16:11.880Z,100520.44
2018-08-24T12:19:16.134Z,100518.97
2018-08-24T12:22:20.410Z,100522.75
2018-08-24T12:25:24.643Z,100518.25
2018-08-24T12:28:28.888Z,100509.80
2018-08-24T12:31:33.137Z,100517.88
2018-08-24T12:34:37.418Z,100539.48
2018-08-24T12:37:43.665Z,100540.73
2018-08-24T12:40:47.911Z,100537.51
2018-08-24T12:43:52.110Z,100531.17
2018-08-24T12:46:56.387Z,100537.69
2018-08-24T12:50:00.659Z,100535.72
2018-08-24T12:53:04.872Z,100536.45
2018-08-24T12:56:13.182Z,100536.88
2018-08-24T12:59:17.396Z,100536.52
2018-08-24T13:02:21.602Z,100542.22
2018-08-24T13:05:25.806Z,100538.37
2018-08-24T13:08:30.067Z,100541.01
2018-08-24T13:11:34.302Z,100535.36
2018-08-24T13:14:38.574Z,100530.50
2018-08-24T13:17:43.165Z,100538.84
2018-08-24T13:20:47.490Z,100545.23
2018-08-24T13:23:51.756Z,100544.97
2018-08-24T13:26:56.000Z,100539.14
2018-08-24T13:30:00.261Z,100529.41
2018-08-24T13:33:04.466Z,100528.24
2018-08-24T13:36:08.718Z,100525.66
2018-08-24T13:39:12.926Z,100530.56
2018-08-24T13:42:17.701Z,100518.06
2018-08-24T13:45:21.934Z,100521.87
2018-08-24T13:48:26.165Z,100517.38
2018-08-24T13:51:30.397Z,100523.53
2018-08-24T13:54:34.642Z,100527.80
2018-08-24T13:57:38.880Z,100549.13
2018-08-24T14:00:43.112Z,100546.53
2018-08-24T14:03:47.376Z,100555.46
2018-08-24T14:06:51.599Z,100585.81
2018-08-24T14:09:55.837Z,100576.25
2018-08-24T14:13:00.154Z,100582.34
2018-08-24T14:16:04.353Z,100582.00
2018-08-24T14:19:08.611Z,100586.36
2018-08-24T14:22:12.828Z,100582.27
2018-08-24T14:25:18.820Z,100588.05
2018-08-24T14:28:23.032Z,100587.22
2018-08-24T14:31:27.309Z,100582.82
2018-08-24T14:34:31.558Z,100581.19
2018-08-24T14:37:35.805Z,100585.06
2018-08-24T14:40:39.999Z,100582.61
2018-08-24T14:43:44.263Z,100578.75
2018-08-24T14:46:48.493Z,100575.46
2018-08-24T14:49:52.930Z,100571.34
2018-08-24T14:52:57.244Z,100569.41
2018-08-24T14:56:01.541Z,100571.63
2018-08-24T14:59:05.937Z,100570.23
2018-08-24T15:02:10.147Z,100561.42
2018-08-24T15:05:14.387Z,100563.09
2018-08-24T15:08:18.600Z,100560.61
2018-08-24T15:11:22.837Z,100558.36
2018-08-24T15:14:27.086Z,100551.42
2018-08-24T15:17:32.289Z,100558.83
2018-08-24T15:20:36.542Z,100570.89
2018-08-24T15:23:40.803Z,100578.86
2018-08-24T15:26:45.025Z,100587.91
2018-08-24T15:29:49.414Z,100588.16
2018-08-24T15:32:53.681Z,100589.73
2018-08-24T15:35:58.417Z,100584.20
2018-08-24T15:39:02.609Z,100588.33
2018-08-24T15:42:07.179Z,100584.49
2018-08-24T15:45:11.430Z,100578.95
2018-08-24T15:48:15.650Z,100586.11
2018-08-24T15:51:19.909Z,100581.97
2018-08-24T15:54:24.131Z,100578.34
2018-08-24T15:57:28.369Z,100571.40
2018-08-24T16:00:32.625Z,100569.27
2018-08-24T16:03:36.868Z,100572.62
2018-08-24T16:06:41.129Z,100572.00
2018-08-24T16:09:45.334Z,100560.95
2018-08-24T16:12:49.561Z,100560.80
2018-08-24T16:15:53.769Z,100566.76
2018-08-24T16:18:58.013Z,100566.02
2018-08-24T16:22:02.287Z,100567.41
2018-08-24T16:25:06.492Z,100563.84
2018-08-24T16:28:10.725Z,100560.00
2018-08-24T16:31:14.982Z,100564.41
2018-08-24T16:34:19.220Z,100564.70
2018-08-24T16:37:23.457Z,100561.15
2018-08-24T16:40:27.693Z,100566.66
2018-08-24T16:43:31.921Z,100567.77
2018-08-24T16:46:36.190Z,100560.62
2018-08-24T16:49:40.357Z,100567.75
2018-08-24T16:52:44.590Z,100568.59
2018-08-24T16:55:48.785Z,100561.45
2018-08-24T16:58:53.018Z,100569.67
2018-08-24T17:01:57.237Z,100570.23
2018-08-24T17:05:01.439Z,100569.66
2018-08-24T17:08:06.310Z,100581.73
2018-08-24T17:11:10.632Z,100579.79
2018-08-24T17:14:14.910Z,100587.18
2018-08-24T17:17:19.139Z,100580.29
2018-08-24T17:20:23.355Z,100580.83
2018-08-24T17:23:27.589Z,100582.50
2018-08-24T17:26:31.822Z,100586.30
2018-08-24T17:29:36.169Z,100587.13
2018-08-24T17:32:40.421Z,100583.81
2018-08-24T17:35:44.710Z,100579.37
2018-08-24T17:38:48.883Z,100585.70
2018-08-24T17:41:53.163Z,100584.03
2018-08-24T17:44:57.361Z,100591.70
2018-08-24T17:48:01.667Z,100587.02
2018-08-24T17:51:05.862Z,100577.93
2018-08-24T17:54:10.157Z,100580.88
2018-08-24T17:57:14.344Z,100581.41
2018-08-24T18:00:18.632Z,100589.30
2018-08-24T18:03:30.658Z,100592.28
2018-08-24T18:06:34.923Z,100595.55
2018-08-24T18:09:39.311Z,100596.84
2018-08-24T18:12:43.532Z,100597.38
2018-08-24T18:15:48.093Z,100599.81
2018-08-24T18:18:52.370Z,100603.08
2018-08-24T18:21:56.613Z,100611.25
2018-08-24T18:25:00.850Z,100610.41
2018-08-24T18:28:05.090Z,100634.23
2018-08-24T18:31:09.463Z,100655.18
2018-08-24T18:34:13.695Z,100646.35
2018-08-24T18:37:18.976Z,100647.68
2018-08-24T18:40:23.114Z,100668.25
2018-08-24T18:43:27.373Z,100674.80
2018-08-24T18:46:31.617Z,100673.80
2018-08-24T18:49:35.859Z,100691.70
2018-08-24T18:52:40.105Z,100691.08
2018-08-24T18:55:44.325Z,100703.80
2018-08-24T18:58:48.573Z,100705.13
2018-08-24T19:01:52.797Z,100702.92
2018-08-24T19:04:57.093Z,100696.94
2018-08-24T19:08:06.705Z,100698.05
2018-08-24T19:11:16.185Z,100698.83
2018-08-24T19:14:20.413Z,100688.85
2018-08-24T19:17:29.998Z,100675.59
2018-08-24T19:21:37.153Z,100680.17
2018-08-24T19:24:41.395Z,100675.84
2018-08-24T19:27:50.868Z,100675.70
2018-08-24T19:30:55.081Z,100670.73
2018-08-24T19:33:59.312Z,100664.39
2018-08-24T19:37:03.554Z,100662.96
2018-08-24T19:41:16.689Z,100664.92
2018-08-24T19:44:20.909Z,100669.25
2018-08-24T19:47:30.377Z,100661.67
2018-08-24T19:50:34.625Z,100642.36
2018-08-24T19:53:38.850Z,100620.58
2018-08-24T19:56:43.297Z,100616.20
2018-08-24T19:59:47.525Z,100617.04
2018-08-24T20:02:51.777Z,100611.83
2018-08-24T20:06:01.342Z,100610.08
2018-08-24T20:09:15.430Z,100612.67
2018-08-24T20:12:19.676Z,100602.42
2018-08-24T20:15:29.154Z,100595.36
2018-08-24T20:18:33.441Z,100587.64
2018-08-24T20:21:37.689Z,100587.28
2018-08-24T20:24:41.996Z,100599.28
2018-08-24T20:27:46.345Z,100597.29
2018-08-24T20:30:50.559Z,100603.75
2018-08-24T20:33:54.793Z,100596.06
2018-08-24T20:36:59.001Z,100597.36
2018-08-24T20:40:03.360Z,100603.93
2018-08-24T20:43:07.516Z,100618.47
2018-08-24T20:46:11.736Z,100622.14
2018-08-24T20:49:15.937Z,100627.07
2018-08-24T20:52:20.206Z,100626.59
2018-08-24T20:55:24.536Z,100634.17
2018-08-24T20:58:28.753Z,100630.04
2018-08-24T21:01:32.965Z,100625.91
2018-08-24T21:04:37.152Z,100623.99
2018-08-24T21:07:41.362Z,100632.24
2018-08-24T21:10:45.691Z,100627.84
2018-08-24T21:13:49.930Z,100623.43
2018-08-24T21:16:54.301Z,100616.50
2018-08-24T21:19:58.526Z,100620.59
2018-08-24T21:23:02.733Z,100620.48
2018-08-24T21:26:06.982Z,100611.78
2018-08-24T21:29:11.237Z,100607.97
2018-08-24T21:32:15.425Z,100610.41
2018-08-24T21:35:21.060Z,100620.83
2018-08-24T21:38:25.293Z,100626.70
2018-08-24T21:41:29.527Z,100618.44
2018-08-24T21:44:33.764Z,100623.18
2018-08-24T21:47:38.024Z,100620.17
2018-08-24T21:50:42.251Z,100620.73
2018-08-24T21:53:46.460Z,100622.70
2018-08-24T21:56:52.858Z,100613.12
2018-08-24T21:59:57.112Z,100602.22
2018-08-24T22:03:01.392Z,100600.02
2018-08-24T22:06:05.771Z,100591.31
2018-08-24T22:09:11.177Z,100584.50
2018-08-24T22:12:15.396Z,100576.56
2018-08-24T22:15:20.788Z,100562.09
2018-08-24T22:18:25.353Z,100550.19
2018-08-24T22:21:29.560Z,100552.95
2018-08-24T22:24:33.815Z,100557.52
2018-08-24T22:27:38.674Z,100554.28
2018-08-24T22:30:43.233Z,100557.59
2018-08-24T22:33:49.312Z,100550.47
2018-08-24T22:36:54.572Z,100558.72
2018-08-24T22:39:58.920Z,100578.67
2018-08-24T22:43:03.152Z,100594.23
2018-08-24T22:46:07.506Z,100594.19
2018-08-24T22:49:11.957Z,100608.10
2018-08-24T22:52:16.197Z,100600.13
2018-08-24T22:55:20.461Z,100606.41
2018-08-24T22:58:24.777Z,100603.34
2018-08-24T23:01:28.992Z,100602.45
2018-08-24T23:04:33.250Z,100599.97
2018-08-24T23:07:37.449Z,100598.85
2018-08-24T23:10:41.733Z,100602.58
2018-08-24T23:13:46.090Z,100601.58
2018-08-24T23:16:50.333Z,100600.94
2018-08-24T23:19:54.543Z,100601.42
2018-08-24T23:22:58.761Z,100602.55
2018-08-24T23:26:02.977Z,100596.78
2018-08-24T23:29:07.237Z,100600.38
2018-08-24T23:32:11.747Z,100595.64
2018-08-24T23:35:15.981Z,100596.66
2018-08-24T23:38:20.381Z,100591.69
2018-08-24T23:41:24.654Z,100575.73
2018-08-24T23:44:28.997Z,100580.77
2018-08-24T23:47:33.226Z,100577.48
2018-08-24T23:50:37.468Z,100575.74
2018-08-24T23:53:41.682Z,100573.75
2018-08-24T23:56:46.155Z,100572.80
2018-08-24T23:59:50.819Z,100561.22
